ACA837 EDDM-CYYZ
Flight info
| Callsign | ACA837 |
|---|---|
| Flight time | N/A |
| Altitude | 36000 |
| Route | GIVMI6Q/08L GIVMI Y101 INBED DCT REKDI DCT LOHRE DCT ADKUV DCT BUB DCT DENUT L610 KOPUL Q63 ICTAM L179 SAWPE DCT OZZIL DCT ARPAK DCT FELCA DCT OFSOX DCT SLANY DCT TOBOR/M085F360 NATC ELSIR/N0484F360 N412A MIILS DCT LETAK IMEBA9 |
| Aircraft | B789/H-SDE1E2E3FGHIJ2J3J4J5M1RWXY/LB1D1 |
Departure
| Time | 2026-05-06 11:37 |
|---|---|
| Airport | Munich Airport (EDDM) |
Arrival
| Time | N/A |
|---|---|
| Airport | Toronto Pearson International Airport (CYYZ) |
| Time | Latitude | Longitude | Altitude | Speed | Heading |
|---|---|---|---|---|---|
| 2026-05-06 11:14 | 48.35470 | 11.79744 | 1481 ft | 0 kts | 83° |
| 2026-05-06 11:24 | 48.35469 | 11.79742 | 1490 ft | 2 kts | 83° |
| 2026-05-06 11:24 | 48.35465 | 11.79704 | 1482 ft | 4 kts | 75° |
| 2026-05-06 11:25 | 48.35456 | 11.79666 | 1475 ft | 4 kts | 63° |
| 2026-05-06 11:25 | 48.35442 | 11.79632 | 1475 ft | 4 kts | 47° |
| 2026-05-06 11:25 | 48.35422 | 11.79607 | 1475 ft | 4 kts | 23° |
| 2026-05-06 11:25 | 48.35399 | 11.79599 | 1475 ft | 1 kts | 353° |
| 2026-05-06 11:26 | 48.35398 | 11.79599 | 1475 ft | 0 kts | 353° |
| 2026-05-06 11:29 | 48.35407 | 11.79598 | 1475 ft | 3 kts | 353° |
| 2026-05-06 11:29 | 48.35434 | 11.79593 | 1478 ft | 7 kts | 353° |
| 2026-05-06 11:29 | 48.35495 | 11.79583 | 1482 ft | 9 kts | 353° |
| 2026-05-06 11:29 | 48.35556 | 11.79572 | 1488 ft | 9 kts | 353° |
| 2026-05-06 11:30 | 48.35613 | 11.79561 | 1482 ft | 9 kts | 353° |
| 2026-05-06 11:30 | 48.35691 | 11.79547 | 1480 ft | 13 kts | 354° |
| 2026-05-06 11:30 | 48.35782 | 11.79532 | 1483 ft | 13 kts | 353° |
| 2026-05-06 11:30 | 48.35870 | 11.79517 | 1483 ft | 12 kts | 355° |
| 2026-05-06 11:31 | 48.35966 | 11.79503 | 1477 ft | 15 kts | 353° |
| 2026-05-06 11:31 | 48.36063 | 11.79482 | 1479 ft | 13 kts | 342° |
| 2026-05-06 11:31 | 48.36097 | 11.79386 | 1486 ft | 10 kts | 268° |
| 2026-05-06 11:31 | 48.36088 | 11.79255 | 1481 ft | 16 kts | 263° |
| 2026-05-06 11:32 | 48.36074 | 11.79079 | 1486 ft | 17 kts | 265° |
| 2026-05-06 11:32 | 48.36062 | 11.78906 | 1478 ft | 17 kts | 263° |
| 2026-05-06 11:32 | 48.36046 | 11.78700 | 1490 ft | 22 kts | 263° |
| 2026-05-06 11:32 | 48.36026 | 11.78448 | 1482 ft | 25 kts | 263° |
| 2026-05-06 11:33 | 48.36006 | 11.78191 | 1490 ft | 24 kts | 263° |
| 2026-05-06 11:33 | 48.35986 | 11.77948 | 1482 ft | 23 kts | 263° |
| 2026-05-06 11:33 | 48.35969 | 11.77718 | 1490 ft | 22 kts | 263° |
| 2026-05-06 11:33 | 48.35952 | 11.77500 | 1481 ft | 20 kts | 263° |
| 2026-05-06 11:34 | 48.35935 | 11.77293 | 1480 ft | 19 kts | 263° |
| 2026-05-06 11:34 | 48.35922 | 11.77098 | 1480 ft | 18 kts | 264° |
| 2026-05-06 11:34 | 48.35917 | 11.76924 | 1490 ft | 16 kts | 282° |
| 2026-05-06 11:34 | 48.35985 | 11.76830 | 1483 ft | 13 kts | 346° |
| 2026-05-06 11:35 | 48.36051 | 11.76814 | 1485 ft | 6 kts | 353° |
| 2026-05-06 11:35 | 48.36095 | 11.76806 | 1477 ft | 9 kts | 353° |
| 2026-05-06 11:35 | 48.36168 | 11.76792 | 1490 ft | 11 kts | 352° |
| 2026-05-06 11:35 | 48.36240 | 11.76784 | 1480 ft | 10 kts | 7° |
| 2026-05-06 11:36 | 48.36281 | 11.76838 | 1485 ft | 7 kts | 66° |
| 2026-05-06 11:36 | 48.36292 | 11.76920 | 1480 ft | 10 kts | 85° |
| 2026-05-06 11:36 | 48.36305 | 11.77127 | 1486 ft | 41 kts | 84° |
| 2026-05-06 11:36 | 48.36365 | 11.77923 | 1479 ft | 111 kts | 83° |
| 2026-05-06 11:37 | 48.36479 | 11.79402 | 1486 ft | 172 kts | 83° |
| 2026-05-06 11:37 | 48.36620 | 11.81351 | 1944 ft | 189 kts | 84° |
| 2026-05-06 11:37 | 48.36754 | 11.83377 | 2668 ft | 207 kts | 84° |
| 2026-05-06 11:37 | 48.37033 | 11.85631 | 2940 ft | 234 kts | 66° |
| 2026-05-06 11:38 | 48.38198 | 11.87530 | 3177 ft | 260 kts | 29° |
| 2026-05-06 11:38 | 48.39943 | 11.88150 | 3919 ft | 266 kts | 355° |
| 2026-05-06 11:38 | 48.41657 | 11.87094 | 4620 ft | 273 kts | 320° |
| 2026-05-06 11:38 | 48.42974 | 11.84986 | 5266 ft | 279 kts | 308° |
| 2026-05-06 11:39 | 48.44153 | 11.82654 | 6067 ft | 280 kts | 304° |
| 2026-05-06 11:39 | 48.45310 | 11.80337 | 6779 ft | 283 kts | 307° |
| 2026-05-06 11:39 | 48.46595 | 11.78068 | 7491 ft | 285 kts | 309° |
| 2026-05-06 11:39 | 48.47917 | 11.75824 | 8220 ft | 287 kts | 309° |
| 2026-05-06 11:40 | 48.49225 | 11.73540 | 8962 ft | 288 kts | 307° |
| 2026-05-06 11:40 | 48.50525 | 11.71231 | 9679 ft | 290 kts | 306° |
| 2026-05-06 11:40 | 48.51838 | 11.68906 | 10332 ft | 292 kts | 306° |
| 2026-05-06 11:40 | 48.53164 | 11.66569 | 10943 ft | 295 kts | 306° |
| 2026-05-06 11:41 | 48.54503 | 11.64209 | 11568 ft | 297 kts | 306° |
| 2026-05-06 11:41 | 48.55851 | 11.61826 | 12228 ft | 300 kts | 306° |
| 2026-05-06 11:41 | 48.57212 | 11.59415 | 12861 ft | 303 kts | 306° |
| 2026-05-06 11:41 | 48.58622 | 11.56908 | 12967 ft | 324 kts | 306° |
| 2026-05-06 11:42 | 48.60133 | 11.54223 | 13003 ft | 346 kts | 306° |
| 2026-05-06 11:42 | 48.61736 | 11.51382 | 13094 ft | 364 kts | 306° |
| 2026-05-06 11:42 | 48.62195 | 11.50572 | 13253 ft | 364 kts | 306° |
| 2026-05-06 11:43 | 48.63395 | 11.48449 | 13722 ft | 365 kts | 306° |
| 2026-05-06 11:43 | 48.65027 | 11.45549 | 14190 ft | 368 kts | 306° |
| 2026-05-06 11:43 | 48.66693 | 11.42576 | 14687 ft | 372 kts | 306° |
| 2026-05-06 11:44 | 48.70121 | 11.36627 | 15616 ft | 381 kts | 315° |
| 2026-05-06 11:44 | 48.72301 | 11.34273 | 16068 ft | 388 kts | 322° |
| 2026-05-06 11:44 | 48.74548 | 11.31977 | 16530 ft | 391 kts | 322° |
| 2026-05-06 11:44 | 48.76820 | 11.29691 | 17025 ft | 393 kts | 322° |
| 2026-05-06 11:45 | 48.79103 | 11.27391 | 17511 ft | 395 kts | 322° |
| 2026-05-06 11:45 | 48.81390 | 11.25066 | 17983 ft | 397 kts | 322° |
| 2026-05-06 11:45 | 48.83698 | 11.22735 | 18403 ft | 400 kts | 325° |
| 2026-05-06 11:45 | 48.86275 | 11.21017 | 18720 ft | 409 kts | 338° |
| 2026-05-06 11:46 | 48.88986 | 11.19619 | 19044 ft | 413 kts | 338° |
| 2026-05-06 11:46 | 48.91721 | 11.18256 | 19409 ft | 416 kts | 339° |
| 2026-05-06 11:46 | 48.94481 | 11.16874 | 19739 ft | 419 kts | 338° |
| 2026-05-06 11:46 | 48.97255 | 11.15456 | 20109 ft | 422 kts | 338° |
| 2026-05-06 11:47 | 49.00046 | 11.14025 | 20683 ft | 424 kts | 338° |
| 2026-05-06 11:47 | 49.02828 | 11.12611 | 21197 ft | 428 kts | 339° |
| 2026-05-06 11:47 | 49.05669 | 11.11169 | 21731 ft | 432 kts | 338° |
| 2026-05-06 11:47 | 49.08538 | 11.09703 | 22164 ft | 437 kts | 338° |
| 2026-05-06 11:48 | 49.11436 | 11.08219 | 22649 ft | 440 kts | 338° |
| 2026-05-06 11:48 | 49.14354 | 11.06730 | 23099 ft | 444 kts | 338° |
| 2026-05-06 11:48 | 49.17294 | 11.05231 | 23473 ft | 448 kts | 338° |
| 2026-05-06 11:48 | 49.20255 | 11.03718 | 23865 ft | 450 kts | 338° |
| 2026-05-06 11:49 | 49.23232 | 11.02185 | 24246 ft | 451 kts | 338° |
| 2026-05-06 11:49 | 49.26207 | 11.00649 | 24707 ft | 451 kts | 338° |
| 2026-05-06 11:49 | 49.29191 | 10.99108 | 25025 ft | 454 kts | 338° |
| 2026-05-06 11:49 | 49.32193 | 10.97560 | 25351 ft | 457 kts | 338° |
| 2026-05-06 11:50 | 49.35211 | 10.95974 | 25680 ft | 457 kts | 334° |
| 2026-05-06 11:50 | 49.38017 | 10.93735 | 25981 ft | 452 kts | 321° |
| 2026-05-06 11:50 | 49.40445 | 10.90728 | 26288 ft | 446 kts | 309° |
| 2026-05-06 11:50 | 49.42464 | 10.87151 | 26592 ft | 444 kts | 304° |
| 2026-05-06 11:51 | 49.44398 | 10.83517 | 26901 ft | 446 kts | 303° |
| 2026-05-06 11:51 | 49.46350 | 10.79800 | 27232 ft | 448 kts | 303° |
| 2026-05-06 11:51 | 49.48311 | 10.76062 | 27522 ft | 451 kts | 303° |
| 2026-05-06 11:51 | 49.50295 | 10.72294 | 27747 ft | 455 kts | 303° |
| 2026-05-06 11:52 | 49.52294 | 10.68504 | 28021 ft | 457 kts | 303° |
| 2026-05-06 11:52 | 49.54298 | 10.64684 | 28304 ft | 459 kts | 303° |
| 2026-05-06 11:52 | 49.56306 | 10.60844 | 28553 ft | 461 kts | 303° |
| 2026-05-06 11:52 | 49.58325 | 10.56984 | 28824 ft | 463 kts | 303° |
| 2026-05-06 11:53 | 49.59665 | 10.54420 | 28997 ft | 465 kts | 303° |
| 2026-05-06 11:53 | 49.61697 | 10.50530 | 29236 ft | 467 kts | 302° |
| 2026-05-06 11:53 | 49.63738 | 10.46612 | 29495 ft | 469 kts | 302° |
| 2026-05-06 11:53 | 49.65757 | 10.42656 | 29714 ft | 468 kts | 298° |
| 2026-05-06 11:54 | 49.67589 | 10.38504 | 29930 ft | 469 kts | 298° |
| 2026-05-06 11:54 | 49.69435 | 10.34321 | 30085 ft | 472 kts | 298° |
| 2026-05-06 11:54 | 49.71895 | 10.28765 | 30437 ft | 473 kts | 298° |
| 2026-05-06 11:54 | 49.73149 | 10.25922 | 30612 ft | 474 kts | 298° |
| 2026-05-06 11:55 | 49.75001 | 10.21708 | 30869 ft | 474 kts | 298° |
| 2026-05-06 11:55 | 49.76846 | 10.17508 | 31216 ft | 472 kts | 298° |
| 2026-05-06 11:55 | 49.78695 | 10.13294 | 31408 ft | 474 kts | 298° |
| 2026-05-06 11:55 | 49.80544 | 10.09073 | 31629 ft | 475 kts | 298° |
| 2026-05-06 11:56 | 49.82397 | 10.04837 | 31832 ft | 476 kts | 298° |
| 2026-05-06 11:56 | 49.84254 | 10.00583 | 32068 ft | 477 kts | 298° |
| 2026-05-06 11:56 | 49.87984 | 9.92019 | 32355 ft | 481 kts | 299° |
| 2026-05-06 11:57 | 49.89858 | 9.87711 | 32538 ft | 483 kts | 298° |
| 2026-05-06 11:57 | 49.91737 | 9.83379 | 32716 ft | 484 kts | 298° |
| 2026-05-06 11:57 | 49.93614 | 9.79042 | 32895 ft | 485 kts | 298° |
| 2026-05-06 11:57 | 49.95499 | 9.74682 | 33061 ft | 486 kts | 298° |
| 2026-05-06 11:58 | 49.97385 | 9.70316 | 33234 ft | 487 kts | 298° |
| 2026-05-06 11:58 | 49.99273 | 9.65937 | 33480 ft | 487 kts | 298° |
| 2026-05-06 11:58 | 50.01155 | 9.61562 | 33719 ft | 486 kts | 298° |
| 2026-05-06 11:58 | 50.03007 | 9.57248 | 33888 ft | 488 kts | 298° |
| 2026-05-06 11:59 | 50.04888 | 9.52860 | 34103 ft | 486 kts | 298° |
| 2026-05-06 11:59 | 50.06517 | 9.48296 | 34289 ft | 479 kts | 288° |
| 2026-05-06 11:59 | 50.07618 | 9.43437 | 34422 ft | 474 kts | 281° |
| 2026-05-06 11:59 | 50.08505 | 9.38471 | 34549 ft | 475 kts | 281° |
| 2026-05-06 12:00 | 50.09380 | 9.33511 | 34737 ft | 475 kts | 281° |
| 2026-05-06 12:00 | 50.10250 | 9.28543 | 34926 ft | 475 kts | 281° |
| 2026-05-06 12:00 | 50.11122 | 9.23573 | 35098 ft | 475 kts | 281° |
| 2026-05-06 12:00 | 50.11996 | 9.18605 | 35271 ft | 475 kts | 281° |
| 2026-05-06 12:01 | 50.12863 | 9.13638 | 35432 ft | 476 kts | 282° |
| 2026-05-06 12:01 | 50.13730 | 9.08659 | 35573 ft | 476 kts | 282° |
| 2026-05-06 12:01 | 50.14595 | 9.03675 | 35741 ft | 476 kts | 282° |
| 2026-05-06 12:01 | 50.15463 | 8.98670 | 35763 ft | 479 kts | 282° |
| 2026-05-06 12:02 | 50.17192 | 8.88650 | 35768 ft | 476 kts | 282° |
| 2026-05-06 12:02 | 50.18902 | 8.78677 | 35762 ft | 475 kts | 282° |
| 2026-05-06 12:03 | 50.20600 | 8.68720 | 35762 ft | 475 kts | 281° |
| 2026-05-06 12:03 | 50.22291 | 8.58749 | 35765 ft | 475 kts | 281° |
| 2026-05-06 12:04 | 50.23974 | 8.48765 | 35765 ft | 475 kts | 281° |
| 2026-05-06 12:04 | 50.25637 | 8.38843 | 35774 ft | 476 kts | 281° |
| 2026-05-06 12:05 | 50.27306 | 8.28821 | 35791 ft | 476 kts | 281° |
| 2026-05-06 12:05 | 50.28971 | 8.18775 | 35792 ft | 478 kts | 281° |
| 2026-05-06 12:06 | 50.30632 | 8.08688 | 35788 ft | 478 kts | 281° |
| 2026-05-06 12:06 | 50.32282 | 7.98606 | 35790 ft | 477 kts | 281° |
| 2026-05-06 12:07 | 50.33908 | 7.88615 | 35800 ft | 476 kts | 281° |
| 2026-05-06 12:07 | 50.35534 | 7.78560 | 35795 ft | 478 kts | 281° |
| 2026-05-06 12:08 | 50.37172 | 7.68377 | 35806 ft | 479 kts | 281° |
| 2026-05-06 12:08 | 50.37503 | 7.66312 | 35807 ft | 479 kts | 281° |
| 2026-05-06 12:09 | 50.38848 | 7.57887 | 35809 ft | 480 kts | 281° |
| 2026-05-06 12:10 | 50.40459 | 7.47742 | 35807 ft | 479 kts | 281° |
| 2026-05-06 12:10 | 50.42060 | 7.37589 | 35805 ft | 480 kts | 281° |
| 2026-05-06 12:11 | 50.43659 | 7.27400 | 35809 ft | 482 kts | 281° |
| 2026-05-06 12:11 | 50.45249 | 7.17197 | 35809 ft | 481 kts | 281° |
| 2026-05-06 12:12 | 50.46827 | 7.07007 | 35808 ft | 480 kts | 281° |
| 2026-05-06 12:12 | 50.48396 | 6.96816 | 35811 ft | 480 kts | 281° |
| 2026-05-06 12:13 | 50.49957 | 6.86604 | 35828 ft | 482 kts | 281° |
| 2026-05-06 12:13 | 50.51684 | 6.76500 | 35823 ft | 483 kts | 283° |
| 2026-05-06 12:14 | 50.53523 | 6.66327 | 35824 ft | 484 kts | 283° |
| 2026-05-06 12:14 | 50.55399 | 6.56141 | 35828 ft | 484 kts | 283° |
| 2026-05-06 12:15 | 50.57241 | 6.45965 | 35819 ft | 483 kts | 284° |
| 2026-05-06 12:15 | 50.59074 | 6.35832 | 35816 ft | 481 kts | 284° |
| 2026-05-06 12:16 | 50.60893 | 6.25702 | 35810 ft | 480 kts | 283° |
| 2026-05-06 12:16 | 50.62702 | 6.15575 | 35840 ft | 481 kts | 283° |
| 2026-05-06 12:17 | 50.64494 | 6.05492 | 35853 ft | 481 kts | 283° |
| 2026-05-06 12:17 | 50.66289 | 5.95329 | 35856 ft | 481 kts | 283° |
| 2026-05-06 12:18 | 50.68079 | 5.85140 | 35858 ft | 482 kts | 283° |
| 2026-05-06 12:18 | 50.69860 | 5.74937 | 35868 ft | 483 kts | 283° |
| 2026-05-06 12:19 | 50.71638 | 5.64700 | 35879 ft | 484 kts | 283° |
| 2026-05-06 12:19 | 50.73406 | 5.54460 | 35862 ft | 483 kts | 283° |
| 2026-05-06 12:20 | 50.75149 | 5.44304 | 35868 ft | 481 kts | 283° |
| 2026-05-06 12:20 | 50.76890 | 5.34098 | 35866 ft | 482 kts | 283° |
| 2026-05-06 12:21 | 50.78629 | 5.23845 | 35873 ft | 484 kts | 283° |
| 2026-05-06 12:21 | 50.80366 | 5.13540 | 35880 ft | 485 kts | 283° |
| 2026-05-06 12:22 | 50.82092 | 5.03245 | 35882 ft | 484 kts | 283° |
| 2026-05-06 12:22 | 50.83808 | 4.92948 | 35882 ft | 483 kts | 283° |
| 2026-05-06 12:23 | 50.85501 | 4.82726 | 35889 ft | 483 kts | 283° |
| 2026-05-06 12:23 | 50.87195 | 4.72431 | 35886 ft | 483 kts | 283° |
| 2026-05-06 12:24 | 50.88878 | 4.62144 | 35896 ft | 483 kts | 283° |
| 2026-05-06 12:24 | 50.90963 | 4.52060 | 35908 ft | 485 kts | 297° |
| 2026-05-06 12:25 | 50.94445 | 4.42863 | 35899 ft | 487 kts | 300° |
| 2026-05-06 12:25 | 50.97963 | 4.33693 | 35902 ft | 487 kts | 300° |
| 2026-05-06 12:26 | 51.01475 | 4.24494 | 35900 ft | 486 kts | 300° |
| 2026-05-06 12:26 | 51.04980 | 4.15285 | 35902 ft | 486 kts | 299° |
| 2026-05-06 12:27 | 51.08450 | 4.06135 | 35900 ft | 486 kts | 299° |
| 2026-05-06 12:27 | 51.11941 | 3.96896 | 35907 ft | 487 kts | 299° |
| 2026-05-06 12:28 | 51.15419 | 3.87658 | 35906 ft | 486 kts | 299° |
| 2026-05-06 12:28 | 51.18891 | 3.78403 | 35909 ft | 486 kts | 299° |
| 2026-05-06 12:29 | 51.22347 | 3.69141 | 35910 ft | 485 kts | 297° |
| 2026-05-06 12:29 | 51.23707 | 3.64255 | 35926 ft | 482 kts | 285° |
| 2026-05-06 12:29 | 51.24507 | 3.59075 | 35922 ft | 482 kts | 281° |
| 2026-05-06 12:30 | 51.25901 | 3.48592 | 35918 ft | 483 kts | 280° |
| 2026-05-06 12:30 | 51.27281 | 3.38102 | 35938 ft | 483 kts | 280° |
| 2026-05-06 12:31 | 51.28631 | 3.27596 | 35938 ft | 481 kts | 280° |
| 2026-05-06 12:31 | 51.29965 | 3.17169 | 35943 ft | 478 kts | 280° |
| 2026-05-06 12:32 | 51.31278 | 3.06826 | 35945 ft | 477 kts | 280° |
| 2026-05-06 12:32 | 51.32586 | 2.96434 | 35950 ft | 476 kts | 280° |
| 2026-05-06 12:33 | 51.33888 | 2.86019 | 35956 ft | 479 kts | 280° |
| 2026-05-06 12:33 | 51.35185 | 2.75572 | 35951 ft | 477 kts | 279° |
| 2026-05-06 12:34 | 51.36470 | 2.65169 | 35957 ft | 477 kts | 279° |
| 2026-05-06 12:34 | 51.37745 | 2.54788 | 35954 ft | 479 kts | 279° |
| 2026-05-06 12:35 | 51.39015 | 2.44354 | 35961 ft | 476 kts | 279° |
| 2026-05-06 12:35 | 51.40275 | 2.33925 | 35959 ft | 477 kts | 279° |
| 2026-05-06 12:36 | 51.41527 | 2.23490 | 35957 ft | 477 kts | 279° |
| 2026-05-06 12:36 | 51.42810 | 2.13074 | 35959 ft | 476 kts | 280° |
| 2026-05-06 12:37 | 51.44069 | 2.02658 | 35961 ft | 477 kts | 279° |
| 2026-05-06 12:37 | 51.45316 | 1.92205 | 35957 ft | 477 kts | 279° |
| 2026-05-06 12:38 | 51.46530 | 1.81779 | 35957 ft | 474 kts | 279° |
| 2026-05-06 12:38 | 51.47725 | 1.71437 | 35963 ft | 475 kts | 279° |
| 2026-05-06 12:39 | 51.48920 | 1.61004 | 35960 ft | 475 kts | 279° |
| 2026-05-06 12:39 | 51.50105 | 1.50581 | 35968 ft | 475 kts | 279° |
| 2026-05-06 12:40 | 51.51282 | 1.40143 | 35968 ft | 475 kts | 279° |
| 2026-05-06 12:40 | 51.52260 | 1.31405 | 35972 ft | 474 kts | 279° |
| 2026-05-06 12:41 | 51.53416 | 1.20985 | 35969 ft | 475 kts | 279° |
| 2026-05-06 12:41 | 51.54183 | 1.10483 | 35988 ft | 473 kts | 268° |
| 2026-05-06 12:42 | 51.54053 | 0.99891 | 35974 ft | 474 kts | 268° |
| 2026-05-06 12:42 | 51.53911 | 0.89368 | 35975 ft | 474 kts | 268° |
| 2026-05-06 12:43 | 51.53769 | 0.78834 | 35982 ft | 472 kts | 268° |
| 2026-05-06 12:43 | 51.53608 | 0.68252 | 35978 ft | 474 kts | 268° |
| 2026-05-06 12:44 | 51.53445 | 0.57713 | 35980 ft | 472 kts | 268° |
| 2026-05-06 12:44 | 51.53268 | 0.47143 | 35988 ft | 474 kts | 268° |
| 2026-05-06 12:45 | 51.53140 | 0.36607 | 36011 ft | 470 kts | 271° |
| 2026-05-06 12:45 | 51.53164 | 0.26074 | 36284 ft | 471 kts | 269° |
| 2026-05-06 12:46 | 51.53167 | 0.20819 | 36481 ft | 470 kts | 270° |
| 2026-05-06 12:46 | 51.53191 | 0.15628 | 36619 ft | 471 kts | 270° |
| 2026-05-06 12:46 | 51.53208 | 0.10360 | 36744 ft | 472 kts | 269° |
| 2026-05-06 12:46 | 51.53209 | 0.05078 | 36937 ft | 472 kts | 269° |
| 2026-05-06 12:47 | 51.53208 | -0.00180 | 37164 ft | 471 kts | 269° |
| 2026-05-06 12:47 | 51.53212 | -0.05443 | 37295 ft | 471 kts | 269° |
| 2026-05-06 12:47 | 51.53215 | -0.10722 | 37415 ft | 472 kts | 269° |
| 2026-05-06 12:47 | 51.53211 | -0.15994 | 37593 ft | 471 kts | 269° |
| 2026-05-06 12:48 | 51.53204 | -0.21254 | 37788 ft | 470 kts | 269° |
| 2026-05-06 12:48 | 51.53197 | -0.26506 | 37929 ft | 471 kts | 269° |
| 2026-05-06 12:48 | 51.53188 | -0.31772 | 37999 ft | 473 kts | 269° |
| 2026-05-06 12:49 | 51.53161 | -0.42343 | 37996 ft | 471 kts | 269° |
| 2026-05-06 12:49 | 51.53124 | -0.52853 | 37987 ft | 470 kts | 269° |
| 2026-05-06 12:50 | 51.53079 | -0.63347 | 37993 ft | 470 kts | 269° |
| 2026-05-06 12:50 | 51.53024 | -0.73841 | 37988 ft | 470 kts | 269° |
| 2026-05-06 12:51 | 51.52960 | -0.84327 | 37986 ft | 469 kts | 269° |
| 2026-05-06 12:51 | 51.52887 | -0.94736 | 37993 ft | 470 kts | 269° |
| 2026-05-06 12:52 | 51.52804 | -1.05231 | 37999 ft | 469 kts | 269° |
| 2026-05-06 12:52 | 51.52762 | -1.15708 | 38004 ft | 469 kts | 275° |
| 2026-05-06 12:53 | 51.53846 | -1.26040 | 38006 ft | 470 kts | 280° |
| 2026-05-06 12:53 | 51.55088 | -1.36356 | 38006 ft | 470 kts | 279° |
| 2026-05-06 12:54 | 51.56286 | -1.46691 | 38003 ft | 470 kts | 279° |
| 2026-05-06 12:54 | 51.57494 | -1.57028 | 38019 ft | 471 kts | 279° |
| 2026-05-06 12:55 | 51.58612 | -1.67398 | 38042 ft | 469 kts | 275° |
| 2026-05-06 12:55 | 51.59370 | -1.77843 | 38018 ft | 471 kts | 276° |
| 2026-05-06 12:56 | 51.60129 | -1.88292 | 38030 ft | 471 kts | 275° |
| 2026-05-06 12:56 | 51.60872 | -1.98752 | 38029 ft | 471 kts | 276° |
| 2026-05-06 12:57 | 51.61611 | -2.09212 | 38034 ft | 470 kts | 275° |
| 2026-05-06 12:57 | 51.62331 | -2.19595 | 38032 ft | 469 kts | 275° |
| 2026-05-06 12:58 | 51.63048 | -2.30019 | 38027 ft | 469 kts | 275° |
| 2026-05-06 12:58 | 51.63755 | -2.40438 | 38024 ft | 468 kts | 277° |
| 2026-05-06 12:59 | 51.65410 | -2.50564 | 38036 ft | 469 kts | 287° |
| 2026-05-06 12:59 | 51.67420 | -2.60569 | 38037 ft | 469 kts | 287° |
| 2026-05-06 13:00 | 51.69389 | -2.70619 | 38031 ft | 470 kts | 286° |
| 2026-05-06 13:00 | 51.71365 | -2.80657 | 38039 ft | 469 kts | 286° |
| 2026-05-06 13:01 | 51.73314 | -2.90656 | 38064 ft | 469 kts | 286° |
| 2026-05-06 13:01 | 51.75264 | -3.00695 | 38061 ft | 468 kts | 287° |
| 2026-05-06 13:02 | 51.77205 | -3.10745 | 38058 ft | 469 kts | 286° |
| 2026-05-06 13:02 | 51.79138 | -3.20807 | 38054 ft | 469 kts | 286° |
| 2026-05-06 13:03 | 51.81028 | -3.30889 | 38047 ft | 468 kts | 281° |
| 2026-05-06 13:03 | 51.81813 | -3.41318 | 38037 ft | 469 kts | 275° |
| 2026-05-06 13:04 | 51.82397 | -3.51777 | 38027 ft | 471 kts | 275° |
| 2026-05-06 13:04 | 51.83620 | -3.62179 | 38026 ft | 472 kts | 281° |
| 2026-05-06 13:05 | 51.84944 | -3.72557 | 38029 ft | 471 kts | 281° |
| 2026-05-06 13:05 | 51.86287 | -3.82928 | 38032 ft | 470 kts | 281° |
| 2026-05-06 13:06 | 51.87604 | -3.93286 | 38028 ft | 470 kts | 281° |
| 2026-05-06 13:06 | 51.88917 | -4.03641 | 38027 ft | 470 kts | 281° |
| 2026-05-06 13:07 | 51.90219 | -4.14004 | 38032 ft | 469 kts | 281° |
| 2026-05-06 13:07 | 51.91511 | -4.24364 | 38027 ft | 469 kts | 281° |
| 2026-05-06 13:08 | 51.92787 | -4.34673 | 38026 ft | 469 kts | 281° |
| 2026-05-06 13:08 | 51.94062 | -4.45052 | 38026 ft | 469 kts | 281° |
| 2026-05-06 13:09 | 51.95327 | -4.55433 | 38025 ft | 469 kts | 281° |
| 2026-05-06 13:09 | 51.96584 | -4.65834 | 38031 ft | 469 kts | 281° |
| 2026-05-06 13:10 | 51.97829 | -4.76201 | 38030 ft | 468 kts | 281° |
| 2026-05-06 13:10 | 51.99059 | -4.86541 | 38025 ft | 466 kts | 281° |
| 2026-05-06 13:11 | 52.00281 | -4.96882 | 38033 ft | 467 kts | 281° |
| 2026-05-06 13:11 | 52.01496 | -5.07256 | 38035 ft | 468 kts | 281° |
| 2026-05-06 13:12 | 52.02703 | -5.17637 | 38035 ft | 468 kts | 281° |
| 2026-05-06 13:12 | 52.04578 | -5.27662 | 38035 ft | 468 kts | 288° |
| 2026-05-06 13:13 | 52.06600 | -5.37733 | 38037 ft | 469 kts | 288° |
| 2026-05-06 13:13 | 52.08633 | -5.47814 | 38045 ft | 469 kts | 288° |
| 2026-05-06 13:14 | 52.10647 | -5.57913 | 38043 ft | 469 kts | 288° |
| 2026-05-06 13:14 | 52.12661 | -5.68029 | 38044 ft | 469 kts | 288° |
| 2026-05-06 13:15 | 52.14661 | -5.78144 | 38048 ft | 469 kts | 288° |
| 2026-05-06 13:15 | 52.16181 | -5.88404 | 38045 ft | 466 kts | 277° |
| 2026-05-06 13:16 | 52.16971 | -5.98900 | 38042 ft | 467 kts | 277° |
| 2026-05-06 13:16 | 52.17756 | -6.09408 | 38045 ft | 467 kts | 277° |
| 2026-05-06 13:17 | 52.18535 | -6.19912 | 38041 ft | 467 kts | 277° |
| 2026-05-06 13:17 | 52.19299 | -6.30416 | 38043 ft | 467 kts | 277° |
| 2026-05-06 13:18 | 52.20057 | -6.40915 | 38042 ft | 467 kts | 277° |
| 2026-05-06 13:18 | 52.20806 | -6.51451 | 38030 ft | 469 kts | 277° |
| 2026-05-06 13:19 | 52.21546 | -6.61980 | 38043 ft | 471 kts | 277° |
| 2026-05-06 13:19 | 52.22280 | -6.72583 | 38046 ft | 469 kts | 277° |
| 2026-05-06 13:20 | 52.23003 | -6.83153 | 38052 ft | 468 kts | 277° |
| 2026-05-06 13:20 | 52.23716 | -6.93711 | 38045 ft | 467 kts | 277° |
| 2026-05-06 13:21 | 52.24417 | -7.04237 | 38048 ft | 467 kts | 277° |
| 2026-05-06 13:21 | 52.25109 | -7.14790 | 38047 ft | 469 kts | 277° |
| 2026-05-06 13:22 | 52.25797 | -7.25416 | 38056 ft | 471 kts | 277° |
| 2026-05-06 13:22 | 52.26471 | -7.35972 | 38052 ft | 470 kts | 276° |
| 2026-05-06 13:23 | 52.27139 | -7.46589 | 38036 ft | 469 kts | 277° |
| 2026-05-06 13:23 | 52.27797 | -7.57194 | 38016 ft | 470 kts | 276° |
| 2026-05-06 13:24 | 52.28445 | -7.67813 | 38026 ft | 470 kts | 277° |
| 2026-05-06 13:24 | 52.29085 | -7.78452 | 38022 ft | 471 kts | 276° |
| 2026-05-06 13:25 | 52.29717 | -7.89116 | 38023 ft | 471 kts | 276° |
| 2026-05-06 13:25 | 52.30340 | -7.99788 | 38007 ft | 472 kts | 276° |
| 2026-05-06 13:26 | 52.30950 | -8.10416 | 38015 ft | 472 kts | 276° |
| 2026-05-06 13:26 | 52.31554 | -8.21105 | 38010 ft | 472 kts | 276° |
| 2026-05-06 13:27 | 52.32148 | -8.31793 | 38012 ft | 472 kts | 276° |
| 2026-05-06 13:27 | 52.32634 | -8.40676 | 38006 ft | 471 kts | 276° |
| 2026-05-06 13:28 | 52.33210 | -8.51356 | 37998 ft | 471 kts | 276° |
| 2026-05-06 13:28 | 52.33776 | -8.62029 | 38001 ft | 471 kts | 276° |
| 2026-05-06 13:29 | 52.34328 | -8.72632 | 37996 ft | 471 kts | 276° |
| 2026-05-06 13:29 | 52.34874 | -8.83309 | 37998 ft | 470 kts | 276° |
| 2026-05-06 13:30 | 52.35411 | -8.93983 | 38009 ft | 470 kts | 276° |
| 2026-05-06 13:30 | 52.35938 | -9.04654 | 38020 ft | 472 kts | 276° |
| 2026-05-06 13:31 | 52.36458 | -9.15403 | 38029 ft | 474 kts | 276° |
| 2026-05-06 13:31 | 52.36966 | -9.26101 | 38026 ft | 474 kts | 276° |
| 2026-05-06 13:32 | 52.37471 | -9.36933 | 38029 ft | 474 kts | 276° |
| 2026-05-06 13:32 | 52.37958 | -9.47612 | 38014 ft | 474 kts | 276° |
| 2026-05-06 13:33 | 52.38441 | -9.58382 | 38032 ft | 475 kts | 276° |
| 2026-05-06 13:33 | 52.38914 | -9.69167 | 38029 ft | 474 kts | 276° |
| 2026-05-06 13:34 | 52.39376 | -9.79952 | 38033 ft | 474 kts | 276° |
| 2026-05-06 13:34 | 52.39829 | -9.90726 | 38034 ft | 474 kts | 276° |
| 2026-05-06 13:35 | 52.40271 | -10.01488 | 38040 ft | 473 kts | 276° |
| 2026-05-06 13:35 | 52.40701 | -10.12181 | 38035 ft | 475 kts | 276° |
| 2026-05-06 13:36 | 52.41125 | -10.22993 | 38047 ft | 476 kts | 275° |
| 2026-05-06 13:36 | 52.41541 | -10.33839 | 38049 ft | 477 kts | 275° |
| 2026-05-06 13:37 | 52.41946 | -10.44673 | 38049 ft | 476 kts | 275° |
| 2026-05-06 13:37 | 52.42341 | -10.55474 | 38045 ft | 474 kts | 275° |
| 2026-05-06 13:38 | 52.42724 | -10.66251 | 38042 ft | 473 kts | 275° |
| 2026-05-06 13:38 | 52.43097 | -10.77014 | 38034 ft | 473 kts | 275° |
| 2026-05-06 13:39 | 52.43462 | -10.87811 | 38046 ft | 475 kts | 275° |
| 2026-05-06 13:39 | 52.43815 | -10.98574 | 38051 ft | 476 kts | 275° |
| 2026-05-06 13:40 | 52.44161 | -11.09410 | 38052 ft | 475 kts | 275° |
| 2026-05-06 13:40 | 52.44496 | -11.20225 | 38045 ft | 474 kts | 275° |
| 2026-05-06 13:41 | 52.44820 | -11.31008 | 38047 ft | 473 kts | 275° |
| 2026-05-06 13:41 | 52.45135 | -11.41772 | 38038 ft | 473 kts | 275° |
| 2026-05-06 13:42 | 52.45439 | -11.52540 | 38034 ft | 472 kts | 275° |
| 2026-05-06 13:42 | 52.45733 | -11.63284 | 38048 ft | 471 kts | 275° |
| 2026-05-06 13:43 | 52.46017 | -11.74020 | 38050 ft | 471 kts | 275° |
| 2026-05-06 13:43 | 52.46291 | -11.84757 | 38047 ft | 471 kts | 275° |
| 2026-05-06 13:44 | 52.46554 | -11.95431 | 38051 ft | 471 kts | 275° |
| 2026-05-06 13:44 | 52.46808 | -12.06169 | 38045 ft | 471 kts | 275° |
| 2026-05-06 13:45 | 52.47054 | -12.16931 | 38043 ft | 471 kts | 275° |
| 2026-05-06 13:45 | 52.47403 | -12.33029 | 38046 ft | 471 kts | 274° |
| 2026-05-06 13:46 | 52.47623 | -12.43750 | 38045 ft | 470 kts | 274° |
| 2026-05-06 13:46 | 52.47834 | -12.54476 | 38030 ft | 470 kts | 274° |
| 2026-05-06 13:47 | 52.48035 | -12.65194 | 38051 ft | 471 kts | 274° |
| 2026-05-06 13:47 | 52.48227 | -12.75975 | 38060 ft | 473 kts | 274° |
| 2026-05-06 13:48 | 52.48409 | -12.86766 | 38057 ft | 473 kts | 274° |
| 2026-05-06 13:48 | 52.48582 | -12.97557 | 38057 ft | 473 kts | 274° |
| 2026-05-06 13:49 | 52.48744 | -13.08294 | 38054 ft | 472 kts | 274° |
| 2026-05-06 13:49 | 52.48897 | -13.19060 | 38041 ft | 471 kts | 274° |
| 2026-05-06 13:50 | 52.49039 | -13.29803 | 38047 ft | 470 kts | 274° |
| 2026-05-06 13:50 | 52.49172 | -13.40527 | 38047 ft | 470 kts | 274° |
| 2026-05-06 13:51 | 52.49294 | -13.51226 | 38048 ft | 468 kts | 273° |
| 2026-05-06 13:51 | 52.49408 | -13.61898 | 38048 ft | 467 kts | 273° |
| 2026-05-06 13:52 | 52.49511 | -13.72552 | 38047 ft | 467 kts | 273° |
| 2026-05-06 13:52 | 52.49604 | -13.83217 | 38058 ft | 468 kts | 273° |
| 2026-05-06 13:53 | 52.49688 | -13.93908 | 38051 ft | 469 kts | 273° |
| 2026-05-06 13:53 | 52.49763 | -14.04616 | 38053 ft | 470 kts | 273° |
| 2026-05-06 13:54 | 52.49828 | -14.15354 | 38061 ft | 470 kts | 272° |
| 2026-05-06 13:54 | 52.49883 | -14.26010 | 38063 ft | 470 kts | 272° |
| 2026-05-06 13:55 | 52.49929 | -14.36733 | 38061 ft | 469 kts | 272° |
| 2026-05-06 13:55 | 52.49965 | -14.47448 | 38059 ft | 469 kts | 272° |
| 2026-05-06 13:56 | 52.49991 | -14.58125 | 38040 ft | 468 kts | 272° |
| 2026-05-06 13:56 | 52.50008 | -14.68789 | 38055 ft | 466 kts | 272° |
| 2026-05-06 13:57 | 52.50015 | -14.79432 | 38053 ft | 467 kts | 272° |
| 2026-05-06 13:57 | 52.50012 | -14.90104 | 38057 ft | 468 kts | 272° |
| 2026-05-06 13:58 | 52.50144 | -15.00784 | 38077 ft | 466 kts | 281° |
| 2026-05-06 13:58 | 52.51351 | -15.11152 | 38060 ft | 466 kts | 283° |
| 2026-05-06 13:59 | 52.52626 | -15.21569 | 38050 ft | 466 kts | 283° |
| 2026-05-06 13:59 | 52.53870 | -15.32023 | 38054 ft | 466 kts | 283° |
| 2026-05-06 14:00 | 52.55119 | -15.42472 | 38053 ft | 465 kts | 283° |
| 2026-05-06 14:00 | 52.56348 | -15.52911 | 38054 ft | 465 kts | 282° |
| 2026-05-06 14:01 | 52.57573 | -15.63362 | 38057 ft | 465 kts | 282° |
| 2026-05-06 14:01 | 52.58778 | -15.73743 | 38057 ft | 465 kts | 282° |
| 2026-05-06 14:02 | 52.59984 | -15.84208 | 38054 ft | 465 kts | 282° |
| 2026-05-06 14:02 | 52.61180 | -15.94672 | 38054 ft | 465 kts | 282° |
| 2026-05-06 14:03 | 52.62367 | -16.05149 | 38054 ft | 465 kts | 282° |
| 2026-05-06 14:03 | 52.63543 | -16.15619 | 38053 ft | 465 kts | 282° |
| 2026-05-06 14:04 | 52.64702 | -16.26014 | 38038 ft | 463 kts | 282° |
| 2026-05-06 14:04 | 52.65852 | -16.36421 | 38039 ft | 462 kts | 282° |
| 2026-05-06 14:05 | 52.66996 | -16.46866 | 38045 ft | 464 kts | 281° |
| 2026-05-06 14:05 | 52.68135 | -16.57345 | 38050 ft | 465 kts | 281° |
| 2026-05-06 14:06 | 52.69265 | -16.67842 | 38050 ft | 466 kts | 281° |
| 2026-05-06 14:06 | 52.70388 | -16.78364 | 38052 ft | 465 kts | 281° |
| 2026-05-06 14:07 | 52.71499 | -16.88863 | 38035 ft | 465 kts | 281° |
| 2026-05-06 14:07 | 52.72601 | -16.99367 | 38032 ft | 465 kts | 281° |
| 2026-05-06 14:08 | 52.73693 | -17.09880 | 38035 ft | 465 kts | 281° |
| 2026-05-06 14:08 | 52.74777 | -17.20398 | 38047 ft | 465 kts | 281° |
| 2026-05-06 14:09 | 52.75842 | -17.30830 | 38046 ft | 463 kts | 281° |
| 2026-05-06 14:09 | 52.76902 | -17.41310 | 38032 ft | 463 kts | 280° |
| 2026-05-06 14:10 | 52.77957 | -17.51845 | 38033 ft | 465 kts | 280° |
| 2026-05-06 14:10 | 52.79006 | -17.62407 | 38041 ft | 466 kts | 280° |
| 2026-05-06 14:11 | 52.80046 | -17.72984 | 38044 ft | 466 kts | 280° |
| 2026-05-06 14:11 | 52.81076 | -17.83559 | 38042 ft | 466 kts | 280° |
| 2026-05-06 14:12 | 52.82097 | -17.94132 | 38035 ft | 466 kts | 279° |
| 2026-05-06 14:12 | 52.83111 | -18.04753 | 38037 ft | 469 kts | 279° |
| 2026-05-06 14:13 | 52.84111 | -18.15325 | 38039 ft | 468 kts | 279° |
| 2026-05-06 14:13 | 52.85108 | -18.25964 | 38035 ft | 467 kts | 279° |
| 2026-05-06 14:14 | 52.86091 | -18.36568 | 38029 ft | 465 kts | 279° |
| 2026-05-06 14:14 | 52.87063 | -18.47156 | 38026 ft | 465 kts | 279° |
| 2026-05-06 14:15 | 52.88027 | -18.57771 | 38032 ft | 468 kts | 278° |
| 2026-05-06 14:15 | 52.88988 | -18.68448 | 38037 ft | 468 kts | 278° |
| 2026-05-06 14:16 | 52.89939 | -18.79131 | 38042 ft | 468 kts | 278° |
| 2026-05-06 14:16 | 52.90873 | -18.89739 | 38041 ft | 467 kts | 278° |
| 2026-05-06 14:17 | 52.91803 | -19.00412 | 38038 ft | 468 kts | 278° |
| 2026-05-06 14:17 | 52.92724 | -19.11091 | 38034 ft | 469 kts | 278° |
| 2026-05-06 14:18 | 52.93482 | -19.19983 | 38047 ft | 469 kts | 278° |
| 2026-05-06 14:18 | 52.94387 | -19.30687 | 38032 ft | 469 kts | 277° |
| 2026-05-06 14:19 | 52.95282 | -19.41405 | 38038 ft | 469 kts | 277° |
| 2026-05-06 14:19 | 52.96168 | -19.52130 | 38039 ft | 469 kts | 277° |
| 2026-05-06 14:20 | 52.97045 | -19.62863 | 38036 ft | 469 kts | 277° |
| 2026-05-06 14:20 | 52.97913 | -19.73616 | 38036 ft | 470 kts | 277° |
| 2026-05-06 14:21 | 52.98768 | -19.84326 | 38036 ft | 471 kts | 277° |
| 2026-05-06 14:21 | 52.99620 | -19.95121 | 38041 ft | 472 kts | 277° |
| 2026-05-06 14:22 | 53.00235 | -20.05948 | 38028 ft | 470 kts | 273° |
| 2026-05-06 14:22 | 53.00702 | -20.16786 | 38034 ft | 471 kts | 273° |
| 2026-05-06 14:23 | 53.01129 | -20.27646 | 38043 ft | 472 kts | 273° |
| 2026-05-06 14:23 | 53.01559 | -20.38503 | 38036 ft | 470 kts | 273° |
| 2026-05-06 14:24 | 53.01972 | -20.49311 | 38031 ft | 468 kts | 272° |
| 2026-05-06 14:24 | 53.02375 | -20.60090 | 38033 ft | 468 kts | 272° |
| 2026-05-06 14:25 | 53.02770 | -20.70905 | 38036 ft | 470 kts | 272° |
| 2026-05-06 14:25 | 53.03156 | -20.81755 | 38037 ft | 471 kts | 272° |
| 2026-05-06 14:26 | 53.03531 | -20.92560 | 38042 ft | 472 kts | 272° |
| 2026-05-06 14:26 | 53.03899 | -21.03452 | 38045 ft | 471 kts | 272° |
| 2026-05-06 14:27 | 53.04255 | -21.14307 | 38042 ft | 470 kts | 272° |
| 2026-05-06 14:27 | 53.04601 | -21.25135 | 38037 ft | 469 kts | 272° |
| 2026-05-06 14:28 | 53.04936 | -21.35947 | 38035 ft | 468 kts | 272° |
| 2026-05-06 14:28 | 53.05263 | -21.46781 | 38050 ft | 470 kts | 271° |
| 2026-05-06 14:29 | 53.05580 | -21.57661 | 38041 ft | 470 kts | 271° |
| 2026-05-06 14:29 | 53.05887 | -21.68508 | 38040 ft | 469 kts | 271° |
| 2026-05-06 14:30 | 53.06182 | -21.79274 | 38042 ft | 469 kts | 271° |
| 2026-05-06 14:30 | 53.06469 | -21.90104 | 38042 ft | 468 kts | 271° |
| 2026-05-06 14:31 | 53.06746 | -22.00966 | 38045 ft | 472 kts | 271° |
| 2026-05-06 14:31 | 53.07015 | -22.11880 | 38052 ft | 472 kts | 271° |
| 2026-05-06 14:32 | 53.07274 | -22.22805 | 38053 ft | 472 kts | 271° |
| 2026-05-06 14:32 | 53.07521 | -22.33643 | 38053 ft | 472 kts | 271° |
| 2026-05-06 14:33 | 53.07760 | -22.44551 | 38037 ft | 472 kts | 270° |
| 2026-05-06 14:33 | 53.07988 | -22.55476 | 38048 ft | 473 kts | 270° |
| 2026-05-06 14:34 | 53.08208 | -22.66425 | 38062 ft | 473 kts | 270° |
| 2026-05-06 14:34 | 53.08418 | -22.77375 | 38056 ft | 473 kts | 270° |
| 2026-05-06 14:35 | 53.08617 | -22.88298 | 38037 ft | 472 kts | 270° |
| 2026-05-06 14:35 | 53.08805 | -22.99197 | 38040 ft | 470 kts | 270° |
| 2026-05-06 14:36 | 53.08983 | -23.10093 | 38044 ft | 473 kts | 270° |
| 2026-05-06 14:36 | 53.09152 | -23.20978 | 38044 ft | 474 kts | 270° |
| 2026-05-06 14:37 | 53.09311 | -23.31945 | 38046 ft | 474 kts | 270° |
| 2026-05-06 14:37 | 53.09461 | -23.42919 | 38048 ft | 473 kts | 270° |
| 2026-05-06 14:38 | 53.09600 | -23.53860 | 38045 ft | 473 kts | 270° |
| 2026-05-06 14:38 | 53.09729 | -23.64815 | 38046 ft | 474 kts | 270° |
| 2026-05-06 14:39 | 53.09848 | -23.75790 | 38047 ft | 475 kts | 269° |
| 2026-05-06 14:39 | 53.09958 | -23.86779 | 38055 ft | 475 kts | 269° |
| 2026-05-06 14:40 | 53.10056 | -23.97701 | 38051 ft | 475 kts | 269° |
| 2026-05-06 14:40 | 53.10146 | -24.08702 | 38058 ft | 474 kts | 269° |
| 2026-05-06 14:41 | 53.10225 | -24.19677 | 38058 ft | 474 kts | 269° |
| 2026-05-06 14:41 | 53.10294 | -24.30670 | 38057 ft | 474 kts | 269° |
| 2026-05-06 14:42 | 53.10352 | -24.41589 | 38058 ft | 475 kts | 269° |
| 2026-05-06 14:42 | 53.10401 | -24.52580 | 38059 ft | 475 kts | 269° |
| 2026-05-06 14:43 | 53.10439 | -24.63571 | 38059 ft | 475 kts | 269° |
| 2026-05-06 14:43 | 53.10468 | -24.74577 | 38060 ft | 476 kts | 269° |
| 2026-05-06 14:44 | 53.10486 | -24.85535 | 38052 ft | 476 kts | 269° |
| 2026-05-06 14:45 | 53.10495 | -25.02063 | 38048 ft | 476 kts | 269° |
| 2026-05-06 14:45 | 53.10488 | -25.13083 | 38057 ft | 476 kts | 269° |
| 2026-05-06 14:46 | 53.10470 | -25.24109 | 38052 ft | 477 kts | 269° |
| 2026-05-06 14:46 | 53.10443 | -25.35167 | 38052 ft | 478 kts | 269° |
| 2026-05-06 14:47 | 53.10405 | -25.46217 | 38049 ft | 477 kts | 269° |
| 2026-05-06 14:47 | 53.10357 | -25.57239 | 38043 ft | 476 kts | 269° |
| 2026-05-06 14:48 | 53.10300 | -25.68244 | 38040 ft | 474 kts | 268° |
| 2026-05-06 14:48 | 53.10232 | -25.79166 | 38037 ft | 475 kts | 268° |
| 2026-05-06 14:49 | 53.10154 | -25.90185 | 38041 ft | 478 kts | 268° |
| 2026-05-06 14:49 | 53.10065 | -26.01264 | 38045 ft | 479 kts | 268° |
| 2026-05-06 14:50 | 53.09966 | -26.12325 | 38051 ft | 478 kts | 268° |
| 2026-05-06 14:50 | 53.09857 | -26.23362 | 38044 ft | 476 kts | 268° |
| 2026-05-06 14:51 | 53.09738 | -26.34373 | 38039 ft | 475 kts | 268° |
| 2026-05-06 14:51 | 53.09609 | -26.45389 | 38037 ft | 476 kts | 268° |
| 2026-05-06 14:52 | 53.09470 | -26.56425 | 38044 ft | 477 kts | 268° |
| 2026-05-06 14:52 | 53.09320 | -26.67404 | 38049 ft | 478 kts | 268° |
| 2026-05-06 14:53 | 53.09160 | -26.78488 | 38047 ft | 479 kts | 268° |
| 2026-05-06 14:53 | 53.08989 | -26.89562 | 38037 ft | 478 kts | 268° |
| 2026-05-06 14:54 | 53.08808 | -27.00603 | 38036 ft | 477 kts | 268° |
| 2026-05-06 14:54 | 53.08617 | -27.11648 | 38030 ft | 476 kts | 268° |
| 2026-05-06 14:55 | 53.08417 | -27.22674 | 38032 ft | 476 kts | 268° |
| 2026-05-06 14:55 | 53.08207 | -27.33608 | 38030 ft | 476 kts | 268° |
| 2026-05-06 14:56 | 53.07987 | -27.44619 | 38031 ft | 476 kts | 267° |
| 2026-05-06 14:56 | 53.07755 | -27.55648 | 38032 ft | 477 kts | 268° |
| 2026-05-06 14:57 | 53.07513 | -27.66697 | 38030 ft | 478 kts | 267° |
| 2026-05-06 14:57 | 53.07261 | -27.77748 | 38029 ft | 479 kts | 267° |
| 2026-05-06 14:58 | 53.06998 | -27.88809 | 38031 ft | 479 kts | 267° |
| 2026-05-06 14:58 | 53.06725 | -27.99873 | 38027 ft | 479 kts | 267° |
| 2026-05-06 14:59 | 53.06441 | -28.10932 | 38020 ft | 478 kts | 267° |
| 2026-05-06 14:59 | 53.06148 | -28.21994 | 38017 ft | 478 kts | 267° |
| 2026-05-06 15:00 | 53.05846 | -28.32965 | 38012 ft | 478 kts | 267° |
| 2026-05-06 15:00 | 53.05532 | -28.44016 | 38009 ft | 478 kts | 267° |
| 2026-05-06 15:01 | 53.05208 | -28.55053 | 38008 ft | 477 kts | 267° |
| 2026-05-06 15:01 | 53.04876 | -28.66011 | 38005 ft | 478 kts | 267° |
| 2026-05-06 15:02 | 53.04532 | -28.77050 | 38010 ft | 479 kts | 267° |
| 2026-05-06 15:02 | 53.04176 | -28.88116 | 38009 ft | 480 kts | 266° |
| 2026-05-06 15:03 | 53.03809 | -28.99222 | 38013 ft | 481 kts | 266° |
| 2026-05-06 15:03 | 53.03432 | -29.10326 | 38006 ft | 480 kts | 266° |
| 2026-05-06 15:04 | 53.03046 | -29.21381 | 38007 ft | 479 kts | 266° |
| 2026-05-06 15:04 | 53.02650 | -29.32419 | 38000 ft | 478 kts | 266° |
| 2026-05-06 15:05 | 53.02244 | -29.43453 | 37997 ft | 478 kts | 266° |
| 2026-05-06 15:05 | 53.01830 | -29.54420 | 37993 ft | 479 kts | 266° |
| 2026-05-06 15:06 | 53.01403 | -29.65446 | 37993 ft | 478 kts | 266° |
| 2026-05-06 15:06 | 53.00967 | -29.76470 | 37979 ft | 478 kts | 266° |
| 2026-05-06 15:07 | 53.00520 | -29.87497 | 37981 ft | 479 kts | 266° |
| 2026-05-06 15:07 | 53.00140 | -29.96677 | 37982 ft | 480 kts | 266° |
| 2026-05-06 15:08 | 52.99955 | -30.07747 | 37991 ft | 481 kts | 269° |
| 2026-05-06 15:08 | 52.99834 | -30.18857 | 37988 ft | 482 kts | 269° |
| 2026-05-06 15:09 | 52.99739 | -30.29969 | 37987 ft | 481 kts | 269° |
| 2026-05-06 15:09 | 52.99615 | -30.41001 | 37988 ft | 476 kts | 269° |
| 2026-05-06 15:10 | 52.99492 | -30.52020 | 37994 ft | 477 kts | 269° |
| 2026-05-06 15:10 | 52.99353 | -30.63020 | 37995 ft | 477 kts | 269° |
| 2026-05-06 15:11 | 52.99206 | -30.74041 | 38005 ft | 477 kts | 269° |
| 2026-05-06 15:11 | 52.99049 | -30.85055 | 38001 ft | 478 kts | 269° |
| 2026-05-06 15:12 | 52.98882 | -30.96001 | 38012 ft | 476 kts | 269° |
| 2026-05-06 15:12 | 52.98704 | -31.07022 | 38010 ft | 479 kts | 268° |
| 2026-05-06 15:13 | 52.98515 | -31.18067 | 38016 ft | 477 kts | 268° |
| 2026-05-06 15:13 | 52.98317 | -31.29083 | 38016 ft | 478 kts | 268° |
| 2026-05-06 15:14 | 52.98108 | -31.40104 | 38021 ft | 477 kts | 268° |
| 2026-05-06 15:14 | 52.97889 | -31.51135 | 38019 ft | 479 kts | 268° |
| 2026-05-06 15:15 | 52.97660 | -31.62174 | 38025 ft | 478 kts | 268° |
| 2026-05-06 15:15 | 52.97420 | -31.73219 | 38025 ft | 479 kts | 268° |
| 2026-05-06 15:16 | 52.97170 | -31.84246 | 38032 ft | 477 kts | 268° |
| 2026-05-06 15:16 | 52.96911 | -31.95203 | 38033 ft | 478 kts | 268° |
| 2026-05-06 15:17 | 52.96641 | -32.06239 | 38035 ft | 480 kts | 268° |
| 2026-05-06 15:17 | 52.96360 | -32.17302 | 38039 ft | 479 kts | 268° |
| 2026-05-06 15:18 | 52.96069 | -32.28360 | 38037 ft | 480 kts | 268° |
| 2026-05-06 15:18 | 52.95769 | -32.39345 | 38040 ft | 479 kts | 268° |
| 2026-05-06 15:19 | 52.95457 | -32.50387 | 38046 ft | 480 kts | 268° |
| 2026-05-06 15:19 | 52.95135 | -32.61424 | 38047 ft | 479 kts | 268° |
| 2026-05-06 15:20 | 52.94804 | -32.72456 | 38053 ft | 480 kts | 267° |
| 2026-05-06 15:20 | 52.94461 | -32.83506 | 38060 ft | 479 kts | 267° |
| 2026-05-06 15:21 | 52.94108 | -32.94557 | 38064 ft | 480 kts | 267° |
| 2026-05-06 15:21 | 52.93745 | -33.05587 | 38058 ft | 480 kts | 267° |
| 2026-05-06 15:22 | 52.93372 | -33.16641 | 38057 ft | 479 kts | 267° |
| 2026-05-06 15:22 | 52.92990 | -33.27617 | 38056 ft | 480 kts | 267° |
| 2026-05-06 15:23 | 52.92596 | -33.38666 | 38055 ft | 480 kts | 267° |
| 2026-05-06 15:23 | 52.92191 | -33.49728 | 38056 ft | 481 kts | 267° |
| 2026-05-06 15:24 | 52.91777 | -33.60777 | 38061 ft | 480 kts | 267° |
| 2026-05-06 15:24 | 52.91351 | -33.71839 | 38069 ft | 480 kts | 267° |
| 2026-05-06 15:25 | 52.90916 | -33.82869 | 38068 ft | 480 kts | 267° |
| 2026-05-06 15:25 | 52.90470 | -33.93933 | 38070 ft | 482 kts | 267° |
| 2026-05-06 15:26 | 52.90015 | -34.04958 | 38077 ft | 482 kts | 267° |
| 2026-05-06 15:26 | 52.89547 | -34.16036 | 38078 ft | 482 kts | 267° |
| 2026-05-06 15:27 | 52.89069 | -34.27125 | 38080 ft | 483 kts | 267° |
| 2026-05-06 15:27 | 52.88580 | -34.38206 | 38080 ft | 482 kts | 267° |
| 2026-05-06 15:28 | 52.88083 | -34.49249 | 38078 ft | 479 kts | 267° |
| 2026-05-06 15:28 | 52.87577 | -34.60257 | 38078 ft | 479 kts | 267° |